createdAt,value
2023-03-27T00:00:59.038Z,0.91
2023-03-27T00:03:25.524Z,0.85
2023-03-27T00:05:52.106Z,0.78
2023-03-27T00:08:18.481Z,0.92
2023-03-27T00:10:44.959Z,1.06
2023-03-27T00:13:11.463Z,0.62
2023-03-27T00:15:37.953Z,0.66
2023-03-27T00:18:04.431Z,0.63
2023-03-27T00:20:30.977Z,0.49
2023-03-27T00:22:57.366Z,0.52
2023-03-27T00:25:23.741Z,0.42
2023-03-27T00:27:50.100Z,0.42
2023-03-27T00:30:17.089Z,0.36
2023-03-27T00:32:43.516Z,0.51
2023-03-27T00:35:09.913Z,0.38
2023-03-27T00:37:36.264Z,0.47
2023-03-27T00:40:02.669Z,0.52
2023-03-27T00:42:29.068Z,0.41
2023-03-27T00:44:55.456Z,0.48
2023-03-27T00:47:21.810Z,0.52
2023-03-27T00:49:48.196Z,0.49
2023-03-27T00:52:14.569Z,0.56
2023-03-27T00:54:40.960Z,0.61
2023-03-27T00:57:07.448Z,0.76
2023-03-27T00:59:33.878Z,0.57
2023-03-27T01:02:00.289Z,0.44
2023-03-27T01:04:26.826Z,0.53
2023-03-27T01:06:53.188Z,0.41
2023-03-27T01:09:20.683Z,0.42
2023-03-27T01:11:47.877Z,0.29
2023-03-27T01:14:14.272Z,0.35
2023-03-27T01:16:40.740Z,0.40
2023-03-27T01:19:07.176Z,0.37
2023-03-27T01:21:33.565Z,0.48
2023-03-27T01:24:00.912Z,0.46
2023-03-27T01:26:36.361Z,0.42
2023-03-27T01:29:03.675Z,0.43
2023-03-27T01:31:30.132Z,0.42
2023-03-27T01:33:56.714Z,0.43
2023-03-27T01:36:23.062Z,0.42
2023-03-27T01:38:49.505Z,0.42
2023-03-27T01:41:15.912Z,0.42
2023-03-27T01:43:42.280Z,0.40
2023-03-27T01:46:08.679Z,0.37
2023-03-27T01:48:35.037Z,0.30
2023-03-27T01:51:01.562Z,0.32
2023-03-27T01:53:27.999Z,0.31
2023-03-27T01:55:54.381Z,0.38
2023-03-27T01:58:20.874Z,0.40
2023-03-27T02:00:51.093Z,0.71
2023-03-27T02:03:30.303Z,0.32
2023-03-27T02:05:56.703Z,0.35
2023-03-27T02:08:27.130Z,0.20
2023-03-27T02:10:53.483Z,0.19
2023-03-27T02:13:20.059Z,0.23
2023-03-27T02:15:46.443Z,0.28
2023-03-27T02:18:12.840Z,0.20
2023-03-27T02:20:39.206Z,0.25
2023-03-27T02:23:05.587Z,0.21
2023-03-27T02:25:31.972Z,0.36
2023-03-27T02:27:58.322Z,0.34
2023-03-27T02:30:24.699Z,0.26
2023-03-27T02:32:51.186Z,0.23
2023-03-27T02:35:17.549Z,0.40
2023-03-27T02:37:43.984Z,0.24
2023-03-27T02:40:10.488Z,0.32
2023-03-27T02:42:36.920Z,0.27
2023-03-27T02:45:03.392Z,0.16
2023-03-27T02:47:29.776Z,0.31
2023-03-27T02:49:56.175Z,0.27
2023-03-27T02:52:22.553Z,0.17
2023-03-27T02:54:48.903Z,0.14
2023-03-27T02:57:15.336Z,0.16
2023-03-27T02:59:41.753Z,0.19
2023-03-27T03:02:08.200Z,0.19
2023-03-27T03:04:34.673Z,0.21
2023-03-27T03:07:01.252Z,0.22
2023-03-27T03:09:27.678Z,0.20
2023-03-27T03:11:54.054Z,0.10
2023-03-27T03:14:20.390Z,0.15
2023-03-27T03:16:49.856Z,0.28
2023-03-27T03:19:16.235Z,0.39
2023-03-27T03:21:42.588Z,0.26
2023-03-27T03:24:08.976Z,0.32
2023-03-27T03:26:35.360Z,0.25
2023-03-27T03:29:01.967Z,0.27
2023-03-27T03:31:28.461Z,0.32
2023-03-27T03:33:54.937Z,0.33
2023-03-27T03:36:21.330Z,0.43
2023-03-27T03:38:47.700Z,0.30
2023-03-27T03:41:14.102Z,0.35
2023-03-27T03:43:40.669Z,0.27
2023-03-27T03:46:07.174Z,0.32
2023-03-27T03:48:33.547Z,0.29
2023-03-27T03:50:59.942Z,0.32
2023-03-27T03:53:26.360Z,0.37
2023-03-27T03:55:52.816Z,0.38
2023-03-27T03:58:19.190Z,0.32
2023-03-27T04:00:45.784Z,0.27
2023-03-27T04:03:12.191Z,0.35
2023-03-27T04:05:38.624Z,0.77
2023-03-27T04:08:04.981Z,1.04
2023-03-27T04:10:31.366Z,0.52
2023-03-27T04:12:58.870Z,0.61
2023-03-27T04:15:25.220Z,0.35
2023-03-27T04:17:51.658Z,0.49
2023-03-27T04:20:18.045Z,0.45
2023-03-27T04:22:44.440Z,0.52
2023-03-27T04:25:10.822Z,0.36
2023-03-27T04:27:37.194Z,0.74
2023-03-27T04:30:03.912Z,0.43
2023-03-27T04:32:30.363Z,0.25
2023-03-27T04:34:56.858Z,0.31
2023-03-27T04:37:25.296Z,0.52
2023-03-27T04:39:51.683Z,0.46
2023-03-27T04:42:21.032Z,0.35
2023-03-27T04:44:47.435Z,0.35
2023-03-27T04:47:13.863Z,0.43
2023-03-27T04:49:40.330Z,0.36
2023-03-27T04:52:06.708Z,0.54
2023-03-27T04:54:33.177Z,0.57
2023-03-27T04:56:59.602Z,0.46
2023-03-27T04:59:26.059Z,0.46
2023-03-27T05:01:52.464Z,0.40
2023-03-27T05:04:18.832Z,0.50
2023-03-27T05:06:45.239Z,0.93
2023-03-27T05:09:11.926Z,1.10
2023-03-27T05:11:38.279Z,0.63
2023-03-27T05:14:04.765Z,0.58
2023-03-27T05:16:31.210Z,0.57
2023-03-27T05:18:57.549Z,0.48
2023-03-27T05:21:23.924Z,0.55
2023-03-27T05:23:50.881Z,0.73
2023-03-27T05:26:17.309Z,0.84
2023-03-27T05:28:44.875Z,0.77
2023-03-27T05:31:11.306Z,0.81
2023-03-27T05:33:37.800Z,2.24
2023-03-27T05:36:04.180Z,1.66
2023-03-27T05:38:30.897Z,0.72
2023-03-27T05:40:57.401Z,0.80
2023-03-27T05:43:23.860Z,0.75
2023-03-27T05:45:50.297Z,0.91
2023-03-27T05:48:16.743Z,0.80
2023-03-27T05:50:43.355Z,0.77
2023-03-27T05:53:09.806Z,1.83
2023-03-27T05:55:36.201Z,1.55
2023-03-27T05:58:02.590Z,1.02
2023-03-27T06:00:28.969Z,0.99
2023-03-27T06:02:55.842Z,1.07
2023-03-27T06:05:22.348Z,1.14
2023-03-27T06:07:48.708Z,1.17
2023-03-27T06:10:17.508Z,0.95
2023-03-27T06:12:43.899Z,1.07
2023-03-27T06:15:10.780Z,1.13
2023-03-27T06:17:37.156Z,1.43
2023-03-27T06:20:05.487Z,2.61
2023-03-27T06:22:31.904Z,1.16
2023-03-27T06:24:58.253Z,0.75
2023-03-27T06:27:26.797Z,1.11
2023-03-27T06:29:53.221Z,1.38
2023-03-27T06:32:19.601Z,0.93
2023-03-27T06:34:46.309Z,0.97
2023-03-27T06:37:12.821Z,1.53
2023-03-27T06:39:39.188Z,1.38
2023-03-27T06:42:05.593Z,1.35
2023-03-27T06:44:32.008Z,1.04
2023-03-27T06:46:58.403Z,1.16
2023-03-27T06:49:24.793Z,1.41
2023-03-27T06:51:51.319Z,1.85
2023-03-27T06:54:17.795Z,1.39
2023-03-27T06:56:44.235Z,2.17
2023-03-27T06:59:10.747Z,1.18
2023-03-27T07:01:37.153Z,1.22
2023-03-27T07:04:03.567Z,1.26
2023-03-27T07:06:29.958Z,0.93
2023-03-27T07:08:58.657Z,0.96
2023-03-27T07:11:25.041Z,1.31
2023-03-27T07:13:51.448Z,1.41
2023-03-27T07:16:17.893Z,1.44
2023-03-27T07:18:44.404Z,1.19
2023-03-27T07:21:10.784Z,1.17
2023-03-27T07:23:37.338Z,1.03
2023-03-27T07:26:03.700Z,0.98
2023-03-27T07:28:30.090Z,0.99
2023-03-27T07:30:56.780Z,0.91
2023-03-27T07:33:23.440Z,1.00
2023-03-27T07:35:49.976Z,0.68
2023-03-27T07:38:16.422Z,0.90
2023-03-27T07:40:42.810Z,0.95
2023-03-27T07:43:09.157Z,1.04
2023-03-27T07:45:35.658Z,1.18
2023-03-27T07:48:02.294Z,1.38
2023-03-27T07:50:28.835Z,1.41
2023-03-27T07:52:55.245Z,0.95
2023-03-27T07:55:23.049Z,0.86
2023-03-27T07:58:00.931Z,0.94
2023-03-27T08:00:29.008Z,1.22
2023-03-27T08:02:55.598Z,1.27
2023-03-27T08:05:22.057Z,1.21
2023-03-27T08:07:48.427Z,1.07
2023-03-27T08:10:14.826Z,1.27
2023-03-27T08:12:41.273Z,1.17
2023-03-27T08:15:07.709Z,1.23
2023-03-27T08:17:34.278Z,0.77
2023-03-27T08:20:00.743Z,0.91
2023-03-27T08:22:27.083Z,0.93
2023-03-27T08:24:53.620Z,0.82
2023-03-27T08:27:20.064Z,1.36
2023-03-27T08:29:46.449Z,1.22
2023-03-27T08:32:12.826Z,1.33
2023-03-27T08:34:39.450Z,1.79
2023-03-27T08:37:06.042Z,1.66
2023-03-27T08:39:32.406Z,1.74
2023-03-27T08:41:58.833Z,1.59
2023-03-27T08:44:25.207Z,2.08
2023-03-27T08:46:51.624Z,3.25
2023-03-27T08:49:18.036Z,2.92
2023-03-27T08:51:44.517Z,2.53
2023-03-27T08:54:10.886Z,3.23
2023-03-27T08:56:37.333Z,2.77
2023-03-27T08:59:04.017Z,2.93
2023-03-27T09:01:30.514Z,3.23
2023-03-27T09:03:57.098Z,2.32
2023-03-27T09:06:23.612Z,1.86
2023-03-27T09:08:50.027Z,2.51
2023-03-27T09:11:16.519Z,2.70
2023-03-27T09:13:42.917Z,1.83
2023-03-27T09:16:09.286Z,1.49
2023-03-27T09:18:35.690Z,1.63
2023-03-27T09:21:02.079Z,1.52
2023-03-27T09:23:28.474Z,1.49
2023-03-27T09:25:55.020Z,1.23
2023-03-27T09:28:21.589Z,1.08
2023-03-27T09:30:48.897Z,1.18
2023-03-27T09:33:16.741Z,0.99
2023-03-27T09:35:43.217Z,1.08
2023-03-27T09:38:09.675Z,1.01
2023-03-27T09:40:36.054Z,0.78
2023-03-27T09:43:02.439Z,0.76
2023-03-27T09:45:28.811Z,0.77
2023-03-27T09:47:55.189Z,0.82
2023-03-27T09:50:21.574Z,1.16
2023-03-27T09:52:47.937Z,1.07
2023-03-27T09:55:14.354Z,1.10
2023-03-27T09:57:40.784Z,1.18
2023-03-27T10:00:07.147Z,1.22
2023-03-27T10:02:33.569Z,1.22
2023-03-27T10:05:00.022Z,1.16
2023-03-27T10:07:26.429Z,1.34
2023-03-27T10:09:52.909Z,1.15
2023-03-27T10:12:19.278Z,1.22
2023-03-27T10:14:45.643Z,1.55
2023-03-27T10:17:12.118Z,1.57
2023-03-27T10:19:38.692Z,1.55
2023-03-27T10:22:05.105Z,1.95
2023-03-27T10:24:31.472Z,2.33
2023-03-27T10:26:57.947Z,2.33
2023-03-27T10:29:24.479Z,2.09
2023-03-27T10:31:50.974Z,2.05
2023-03-27T10:34:18.671Z,2.15
2023-03-27T10:36:45.088Z,2.11
2023-03-27T10:39:11.659Z,1.83
2023-03-27T10:41:38.110Z,2.19
2023-03-27T10:44:04.477Z,2.15
2023-03-27T10:46:31.021Z,1.95
2023-03-27T10:48:57.485Z,1.99
2023-03-27T10:51:28.337Z,2.19
2023-03-27T10:54:02.292Z,2.01
2023-03-27T10:56:28.831Z,1.76
2023-03-27T10:58:55.235Z,1.81
2023-03-27T11:01:21.617Z,1.74
2023-03-27T11:03:48.184Z,1.86
2023-03-27T11:06:14.595Z,2.04
2023-03-27T11:08:41.004Z,2.18
2023-03-27T11:11:07.403Z,2.20
2023-03-27T11:13:33.848Z,1.97
2023-03-27T11:16:00.394Z,2.15
2023-03-27T11:18:26.781Z,1.84
2023-03-27T11:20:53.169Z,1.77
2023-03-27T11:23:19.599Z,1.79
2023-03-27T11:25:45.994Z,2.00
2023-03-27T11:28:12.413Z,1.80
2023-03-27T11:30:38.786Z,1.59
2023-03-27T11:33:05.236Z,1.67
2023-03-27T11:35:31.680Z,1.76
2023-03-27T11:37:58.158Z,1.71
2023-03-27T11:40:24.543Z,1.53
2023-03-27T11:42:50.923Z,1.80
2023-03-27T11:45:17.292Z,1.34
2023-03-27T11:47:43.720Z,1.44
2023-03-27T11:50:10.154Z,1.57
2023-03-27T11:52:36.542Z,1.56
2023-03-27T11:55:04.240Z,1.68
2023-03-27T11:57:30.660Z,1.61
2023-03-27T11:59:57.079Z,1.68
2023-03-27T12:02:23.514Z,1.63
2023-03-27T12:04:49.958Z,1.62
2023-03-27T12:07:21.072Z,1.57
2023-03-27T12:09:56.621Z,1.89
2023-03-27T12:12:22.985Z,2.06
2023-03-27T12:14:49.475Z,7.49
2023-03-27T12:17:15.865Z,2.56
2023-03-27T12:19:42.340Z,1.54
2023-03-27T12:22:22.531Z,1.81
2023-03-27T12:24:59.040Z,2.08
2023-03-27T12:27:26.245Z,1.85
2023-03-27T12:29:52.656Z,1.60
2023-03-27T12:32:19.056Z,1.64
2023-03-27T12:34:45.412Z,1.54
2023-03-27T12:37:11.780Z,1.81
2023-03-27T12:39:38.126Z,1.92
2023-03-27T12:42:04.468Z,1.78
2023-03-27T12:44:30.945Z,1.90
2023-03-27T12:46:57.335Z,1.74
2023-03-27T12:49:29.340Z,1.69
2023-03-27T12:52:00.757Z,1.91
2023-03-27T12:54:27.217Z,2.05
2023-03-27T12:56:53.724Z,1.89
2023-03-27T12:59:20.303Z,1.79
2023-03-27T13:01:52.437Z,1.84
2023-03-27T13:04:19.336Z,2.07
2023-03-27T13:06:45.713Z,1.78
2023-03-27T13:09:12.063Z,1.88
2023-03-27T13:11:38.420Z,1.76
2023-03-27T13:14:04.828Z,1.66
2023-03-27T13:16:31.280Z,1.59
2023-03-27T13:18:57.804Z,1.56
2023-03-27T13:21:24.258Z,1.68
2023-03-27T13:23:50.635Z,1.51
2023-03-27T13:26:17.027Z,1.65
2023-03-27T13:28:43.425Z,1.91
2023-03-27T13:31:09.853Z,1.63
2023-03-27T13:33:36.346Z,1.76
2023-03-27T13:36:02.806Z,1.79
2023-03-27T13:38:29.223Z,1.83
2023-03-27T13:40:55.617Z,1.85
2023-03-27T13:43:22.001Z,1.63
2023-03-27T13:45:48.377Z,2.06
2023-03-27T13:48:14.752Z,1.81
2023-03-27T13:50:41.148Z,1.87
2023-03-27T13:53:07.532Z,2.11
2023-03-27T13:55:34.030Z,1.89
2023-03-27T13:58:00.426Z,1.77
2023-03-27T14:00:26.911Z,1.62
2023-03-27T14:02:53.435Z,1.70
2023-03-27T14:05:19.889Z,1.56
2023-03-27T14:07:46.330Z,1.53
2023-03-27T14:10:12.732Z,1.65
2023-03-27T14:12:39.117Z,1.45
2023-03-27T14:15:05.938Z,1.59
2023-03-27T14:17:33.035Z,1.57
2023-03-27T14:19:59.434Z,1.57
2023-03-27T14:22:25.817Z,1.45
2023-03-27T14:24:52.198Z,1.36
2023-03-27T14:27:18.525Z,1.43
2023-03-27T14:29:44.955Z,1.29
2023-03-27T14:32:11.350Z,1.46
2023-03-27T14:34:51.136Z,1.37
2023-03-27T14:37:19.965Z,1.26
2023-03-27T14:39:46.636Z,1.49
2023-03-27T14:42:12.991Z,1.40
2023-03-27T14:44:39.433Z,1.44
2023-03-27T14:47:05.833Z,1.49
2023-03-27T14:49:32.294Z,1.48
2023-03-27T14:51:58.730Z,1.31
2023-03-27T14:54:25.134Z,1.26
2023-03-27T14:56:51.613Z,1.24
2023-03-27T14:59:18.030Z,1.21
2023-03-27T15:01:44.477Z,1.16
2023-03-27T15:04:10.967Z,1.12
2023-03-27T15:06:37.358Z,1.25
2023-03-27T15:09:03.737Z,1.25
2023-03-27T15:11:30.100Z,1.53
2023-03-27T15:13:56.775Z,1.37
2023-03-27T15:16:23.302Z,1.19
2023-03-27T15:18:49.922Z,1.23
2023-03-27T15:21:16.321Z,1.14
2023-03-27T15:23:42.698Z,1.13
2023-03-27T15:26:09.281Z,1.11
2023-03-27T15:28:35.640Z,1.33
2023-03-27T15:31:02.081Z,1.48
2023-03-27T15:33:28.533Z,1.82
2023-03-27T15:35:55.054Z,1.70
2023-03-27T15:38:21.578Z,1.23
2023-03-27T15:40:47.955Z,1.22
2023-03-27T15:43:14.326Z,1.17
2023-03-27T15:45:40.716Z,1.51
2023-03-27T15:48:07.156Z,1.19
2023-03-27T15:50:33.551Z,1.22
2023-03-27T15:52:59.956Z,1.39
2023-03-27T15:55:26.323Z,1.31
2023-03-27T15:57:52.767Z,1.13
2023-03-27T16:00:19.114Z,1.23
2023-03-27T16:02:45.520Z,1.21
2023-03-27T16:05:12.089Z,1.22
2023-03-27T16:07:38.487Z,1.28
2023-03-27T16:10:04.927Z,1.11
2023-03-27T16:12:31.306Z,1.10
2023-03-27T16:14:57.728Z,1.08
2023-03-27T16:17:24.261Z,1.17
2023-03-27T16:19:50.639Z,3.44
2023-03-27T16:22:17.033Z,2.30
2023-03-27T16:24:43.417Z,1.20
2023-03-27T16:27:09.821Z,1.06
2023-03-27T16:29:36.174Z,1.10
2023-03-27T16:32:02.886Z,1.11
2023-03-27T16:34:29.501Z,1.16
2023-03-27T16:36:55.879Z,1.20
2023-03-27T16:39:22.298Z,1.53
2023-03-27T16:41:48.668Z,1.33
2023-03-27T16:44:15.022Z,2.39
2023-03-27T16:46:41.372Z,1.16
2023-03-27T16:49:07.755Z,1.17
2023-03-27T16:51:34.176Z,1.28
2023-03-27T16:54:00.555Z,1.23
2023-03-27T16:56:26.942Z,1.33
2023-03-27T16:58:53.322Z,1.51
2023-03-27T17:01:19.816Z,1.89
2023-03-27T17:03:46.214Z,2.23
2023-03-27T17:06:12.741Z,1.16
2023-03-27T17:08:39.242Z,1.33
2023-03-27T17:11:05.659Z,1.37
2023-03-27T17:13:32.037Z,1.85
2023-03-27T17:15:58.610Z,1.77
2023-03-27T17:18:25.165Z,1.51
2023-03-27T17:20:51.526Z,1.46
2023-03-27T17:23:17.965Z,1.30
2023-03-27T17:25:44.345Z,1.49
2023-03-27T17:28:10.721Z,1.14
2023-03-27T17:30:39.750Z,1.33
2023-03-27T17:33:09.232Z,1.32
2023-03-27T17:35:35.679Z,1.21
2023-03-27T17:38:02.120Z,1.26
2023-03-27T17:40:28.506Z,1.45
2023-03-27T17:42:54.896Z,1.33
2023-03-27T17:45:21.253Z,1.48
2023-03-27T17:47:47.918Z,1.68
2023-03-27T17:50:17.205Z,2.08
2023-03-27T17:52:43.568Z,2.04
2023-03-27T17:55:10.127Z,2.08
2023-03-27T17:57:36.467Z,2.41
2023-03-27T18:00:03.771Z,1.60
2023-03-27T18:02:31.060Z,1.68
2023-03-27T18:04:57.576Z,1.73
2023-03-27T18:07:23.934Z,1.81
2023-03-27T18:09:50.445Z,1.65
2023-03-27T18:12:16.801Z,1.97
2023-03-27T18:14:43.201Z,2.15
2023-03-27T18:17:09.569Z,1.67
2023-03-27T18:19:36.157Z,1.76
2023-03-27T18:22:02.610Z,2.08
2023-03-27T18:24:28.995Z,1.66
2023-03-27T18:26:55.430Z,1.74
2023-03-27T18:29:21.879Z,1.93
2023-03-27T18:31:48.319Z,1.79
2023-03-27T18:34:14.774Z,1.72
2023-03-27T18:36:41.263Z,1.81
2023-03-27T18:39:07.675Z,1.55
2023-03-27T18:41:35.321Z,2.13
2023-03-27T18:44:01.703Z,2.47
2023-03-27T18:46:28.200Z,1.56
2023-03-27T18:48:54.662Z,1.72
2023-03-27T18:51:21.197Z,1.84
2023-03-27T18:53:47.569Z,1.85
2023-03-27T18:56:13.983Z,2.03
2023-03-27T18:58:40.353Z,2.72
2023-03-27T19:01:06.888Z,2.37
2023-03-27T19:03:33.360Z,2.19
2023-03-27T19:05:59.933Z,2.09
2023-03-27T19:08:26.367Z,2.77
2023-03-27T19:10:52.796Z,2.06
2023-03-27T19:13:19.199Z,2.11
2023-03-27T19:15:45.607Z,2.22
2023-03-27T19:18:11.998Z,2.03
2023-03-27T19:20:38.668Z,1.97
2023-03-27T19:23:05.013Z,2.10
2023-03-27T19:25:31.463Z,2.40
2023-03-27T19:27:57.930Z,3.06
2023-03-27T19:30:24.444Z,2.17
2023-03-27T19:32:50.934Z,2.17
2023-03-27T19:35:17.503Z,2.16
2023-03-27T19:37:43.964Z,2.21
2023-03-27T19:40:10.356Z,2.20
2023-03-27T19:42:36.729Z,2.35
2023-03-27T19:45:03.163Z,2.28
2023-03-27T19:47:29.645Z,2.45
2023-03-27T19:49:56.099Z,1.97
2023-03-27T19:52:22.548Z,2.01
2023-03-27T19:54:48.936Z,1.97
2023-03-27T19:57:15.346Z,2.03
2023-03-27T19:59:41.768Z,2.30
2023-03-27T20:02:08.171Z,2.30
2023-03-27T20:04:34.793Z,2.61
2023-03-27T20:07:01.215Z,2.82
2023-03-27T20:09:27.597Z,2.13
2023-03-27T20:11:54.004Z,2.88
2023-03-27T20:14:20.468Z,2.81
2023-03-27T20:16:46.809Z,2.23
2023-03-27T20:19:13.177Z,2.11
2023-03-27T20:21:39.629Z,2.56
2023-03-27T20:24:06.060Z,2.72
2023-03-27T20:26:32.482Z,2.67
2023-03-27T20:28:58.881Z,2.31
2023-03-27T20:31:25.280Z,2.21
2023-03-27T20:33:51.725Z,2.27
2023-03-27T20:36:18.187Z,2.27
2023-03-27T20:38:44.645Z,2.17
2023-03-27T20:41:11.025Z,2.18
2023-03-27T20:43:37.402Z,2.14
2023-03-27T20:46:03.828Z,2.04
2023-03-27T20:48:30.272Z,2.03
2023-03-27T20:50:56.794Z,2.00
2023-03-27T20:53:23.419Z,1.82
2023-03-27T20:56:02.881Z,1.87
2023-03-27T20:58:29.292Z,1.92
2023-03-27T21:00:55.678Z,2.13
2023-03-27T21:03:22.146Z,1.99
2023-03-27T21:05:48.579Z,2.15
2023-03-27T21:08:14.930Z,1.86
2023-03-27T21:10:41.318Z,1.76
2023-03-27T21:13:07.683Z,2.24
2023-03-27T21:15:34.147Z,2.80
2023-03-27T21:18:00.559Z,1.96
2023-03-27T21:20:26.941Z,1.92
2023-03-27T21:22:53.385Z,2.14
2023-03-27T21:25:19.771Z,2.18
2023-03-27T21:27:46.140Z,1.98
2023-03-27T21:30:12.489Z,2.00
2023-03-27T21:32:38.902Z,2.34
2023-03-27T21:35:05.295Z,2.13
2023-03-27T21:37:31.655Z,1.94
2023-03-27T21:39:58.098Z,2.12
2023-03-27T21:42:24.490Z,2.06
2023-03-27T21:44:54.834Z,2.02
2023-03-27T21:47:24.923Z,2.00
2023-03-27T21:49:56.007Z,2.10
2023-03-27T21:52:22.373Z,1.86
2023-03-27T21:55:00.479Z,2.07
2023-03-27T21:57:29.144Z,2.88
2023-03-27T21:59:55.570Z,4.10
2023-03-27T22:02:21.974Z,4.26
2023-03-27T22:04:48.575Z,4.39
2023-03-27T22:07:15.015Z,4.75
2023-03-27T22:09:41.415Z,5.00
2023-03-27T22:12:07.803Z,4.64
2023-03-27T22:14:34.184Z,4.94
2023-03-27T22:17:00.700Z,4.74
2023-03-27T22:19:27.091Z,4.71
2023-03-27T22:21:53.470Z,4.37
2023-03-27T22:24:20.143Z,4.87
2023-03-27T22:26:46.550Z,4.79
2023-03-27T22:29:12.958Z,4.55
2023-03-27T22:31:39.492Z,4.06
2023-03-27T22:34:06.024Z,4.09
2023-03-27T22:36:32.446Z,3.71
2023-03-27T22:38:58.869Z,3.61
2023-03-27T22:41:25.284Z,3.95
2023-03-27T22:43:51.769Z,4.16
2023-03-27T22:46:18.142Z,4.02
2023-03-27T22:48:44.639Z,3.85
2023-03-27T22:51:11.018Z,3.79
2023-03-27T22:53:37.546Z,4.01
2023-03-27T22:56:06.730Z,4.21
2023-03-27T22:58:33.199Z,4.17
2023-03-27T23:00:59.640Z,4.07
2023-03-27T23:03:26.196Z,4.29
2023-03-27T23:05:52.727Z,4.03
2023-03-27T23:08:19.131Z,4.20
2023-03-27T23:10:45.506Z,4.10
2023-03-27T23:13:11.892Z,4.07
2023-03-27T23:15:38.260Z,4.16
2023-03-27T23:18:04.720Z,4.36
2023-03-27T23:20:32.950Z,4.04
2023-03-27T23:22:59.384Z,4.10
2023-03-27T23:25:25.798Z,3.93
2023-03-27T23:27:52.194Z,3.96
2023-03-27T23:30:18.570Z,4.33
2023-03-27T23:32:44.981Z,6.55
2023-03-27T23:35:11.424Z,19.45
2023-03-27T23:37:37.796Z,8.01
2023-03-27T23:40:04.174Z,4.02
2023-03-27T23:42:30.553Z,3.76
2023-03-27T23:44:56.927Z,3.79
2023-03-27T23:47:23.361Z,3.86
2023-03-27T23:49:49.772Z,3.46
2023-03-27T23:52:16.137Z,3.28
2023-03-27T23:54:42.493Z,3.42
2023-03-27T23:57:08.950Z,3.33
2023-03-27T23:59:38.073Z,3.40
